createdAt,value
2019-03-27T00:01:18.684Z,101975.87
2019-03-27T00:03:50.186Z,101970.14
2019-03-27T00:06:21.696Z,101970.47
2019-03-27T00:08:53.206Z,101974.88
2019-03-27T00:11:24.802Z,101985.40
2019-03-27T00:13:56.333Z,101984.23
2019-03-27T00:16:27.822Z,101979.33
2019-03-27T00:19:00.402Z,101981.31
2019-03-27T00:21:31.912Z,101984.33
2019-03-27T00:24:03.398Z,101990.48
2019-03-27T00:26:34.885Z,101992.59
2019-03-27T00:29:06.400Z,101989.86
2019-03-27T00:31:37.916Z,101994.30
2019-03-27T00:34:09.481Z,101997.24
2019-03-27T00:36:41.014Z,101993.75
2019-03-27T00:39:12.533Z,101998.95
2019-03-27T00:41:44.027Z,101992.37
2019-03-27T00:44:15.607Z,101995.34
2019-03-27T00:46:47.162Z,101994.78
2019-03-27T00:49:18.710Z,101989.99
2019-03-27T00:51:50.194Z,101994.86
2019-03-27T00:54:21.708Z,101986.11
2019-03-27T00:56:53.282Z,101989.95
2019-03-27T00:59:24.790Z,101988.67
2019-03-27T01:01:56.292Z,101994.89
2019-03-27T01:04:27.779Z,101991.28
2019-03-27T01:06:59.370Z,102005.45
2019-03-27T01:09:30.905Z,101994.93
2019-03-27T01:12:02.556Z,102000.50
2019-03-27T01:14:34.136Z,101994.64
2019-03-27T01:17:05.709Z,102002.81
2019-03-27T01:19:37.566Z,102005.02
2019-03-27T01:22:09.149Z,102009.42
2019-03-27T01:24:40.707Z,102008.02
2019-03-27T01:27:12.199Z,102003.81
2019-03-27T01:29:43.715Z,102012.38
2019-03-27T01:32:15.230Z,102016.48
2019-03-27T01:34:46.806Z,102017.39
2019-03-27T01:37:18.312Z,102019.71
2019-03-27T01:39:49.864Z,102019.42
2019-03-27T01:42:21.390Z,102024.37
2019-03-27T01:44:52.942Z,102030.05
2019-03-27T01:47:24.451Z,102033.86
2019-03-27T01:49:56.036Z,102037.89
2019-03-27T01:52:27.547Z,102040.29
2019-03-27T01:54:59.076Z,102041.70
2019-03-27T01:57:30.606Z,102038.95
2019-03-27T02:00:02.094Z,102043.48
2019-03-27T02:02:33.747Z,102046.14
2019-03-27T02:05:07.175Z,102047.33
2019-03-27T02:07:38.689Z,102048.89
2019-03-27T02:10:10.810Z,102048.38
2019-03-27T02:12:42.364Z,102046.23
2019-03-27T02:15:13.878Z,102048.48
2019-03-27T02:17:45.396Z,102045.77
2019-03-27T02:20:16.978Z,102042.58
2019-03-27T02:22:48.481Z,102046.09
2019-03-27T02:25:20.130Z,102050.13
2019-03-27T02:27:51.710Z,102052.00
2019-03-27T02:30:24.363Z,102057.13
2019-03-27T02:32:55.856Z,102055.48
2019-03-27T02:35:27.379Z,102056.03
2019-03-27T02:37:58.887Z,102052.10
2019-03-27T02:40:30.412Z,102054.75
2019-03-27T02:43:01.996Z,102048.58
2019-03-27T02:45:33.549Z,102052.05
2019-03-27T02:48:05.054Z,102051.54
2019-03-27T02:50:36.711Z,102052.69
2019-03-27T02:53:08.239Z,102049.98
2019-03-27T02:55:39.785Z,102051.67
2019-03-27T02:58:11.548Z,102054.33
2019-03-27T03:00:43.047Z,102056.61
2019-03-27T03:03:14.594Z,102053.95
2019-03-27T03:05:46.109Z,102058.86
2019-03-27T03:08:17.615Z,102061.33
2019-03-27T03:10:49.102Z,102068.47
2019-03-27T03:13:20.608Z,102065.81
2019-03-27T03:15:52.117Z,102052.59
2019-03-27T03:18:23.745Z,102051.63
2019-03-27T03:20:55.332Z,102049.98
2019-03-27T03:23:26.919Z,102059.48
2019-03-27T03:25:58.436Z,102060.41
2019-03-27T03:28:29.926Z,102056.53
2019-03-27T03:31:01.449Z,102061.83
2019-03-27T03:33:34.646Z,102066.53
2019-03-27T03:36:06.209Z,102065.16
2019-03-27T03:38:37.790Z,102070.93
2019-03-27T03:41:09.310Z,102075.67
2019-03-27T03:43:40.871Z,102068.17
2019-03-27T03:46:12.429Z,102082.71
2019-03-27T03:48:43.987Z,102080.53
2019-03-27T03:51:15.487Z,102081.19
2019-03-27T03:53:47.002Z,102075.93
2019-03-27T03:56:18.563Z,102071.53
2019-03-27T03:58:50.110Z,102077.30
2019-03-27T04:01:22.078Z,102067.09
2019-03-27T04:03:53.592Z,102079.30
2019-03-27T04:06:25.607Z,102081.44
2019-03-27T04:08:57.107Z,102085.25
2019-03-27T04:11:28.674Z,102086.69
2019-03-27T04:14:00.245Z,102087.30
2019-03-27T04:16:31.783Z,102095.77
2019-03-27T04:19:03.430Z,102098.43
2019-03-27T04:21:34.983Z,102101.48
2019-03-27T04:24:07.616Z,102109.70
2019-03-27T04:26:39.143Z,102101.48
2019-03-27T04:29:10.653Z,102097.05
2019-03-27T04:31:42.154Z,102095.41
2019-03-27T04:34:13.662Z,102102.06
2019-03-27T04:36:45.172Z,102113.14
2019-03-27T04:39:16.755Z,102110.53
2019-03-27T04:41:48.287Z,102112.77
2019-03-27T04:44:19.773Z,102107.11
2019-03-27T04:46:51.270Z,102110.42
2019-03-27T04:49:22.766Z,102122.88
2019-03-27T04:51:54.292Z,102129.52
2019-03-27T04:54:27.116Z,102132.45
2019-03-27T04:56:58.811Z,102137.57
2019-03-27T04:59:30.347Z,102129.72
2019-03-27T05:02:01.855Z,102131.09
2019-03-27T05:04:33.412Z,102129.16
2019-03-27T05:07:05.118Z,102130.48
2019-03-27T05:09:36.605Z,102134.47
2019-03-27T05:12:08.097Z,102127.67
2019-03-27T05:14:39.594Z,102135.64
2019-03-27T05:17:11.180Z,102134.26
2019-03-27T05:19:42.723Z,102135.64
2019-03-27T05:22:14.377Z,102132.77
2019-03-27T05:24:45.887Z,102128.61
2019-03-27T05:27:17.401Z,102133.52
2019-03-27T05:29:48.899Z,102135.85
2019-03-27T05:32:20.435Z,102139.88
2019-03-27T05:34:51.948Z,102136.95
2019-03-27T05:37:23.476Z,102145.37
2019-03-27T05:39:54.977Z,102149.36
2019-03-27T05:42:26.539Z,102152.19
2019-03-27T05:44:58.056Z,102162.63
2019-03-27T05:47:29.631Z,102154.84
2019-03-27T05:50:01.176Z,102165.43
2019-03-27T05:52:32.768Z,102160.03
2019-03-27T05:55:04.727Z,102158.34
2019-03-27T05:57:36.241Z,102158.00
2019-03-27T06:00:07.986Z,102154.41
2019-03-27T06:02:39.486Z,102153.06
2019-03-27T06:05:11.010Z,102159.10
2019-03-27T06:07:42.528Z,102160.25
2019-03-27T06:10:16.325Z,102156.88
2019-03-27T06:12:47.365Z,102153.89
2019-03-27T06:15:18.952Z,102154.91
2019-03-27T06:17:50.481Z,102152.29
2019-03-27T06:20:21.999Z,102151.41
2019-03-27T06:22:53.494Z,102146.94
2019-03-27T06:25:25.145Z,102143.27
2019-03-27T06:27:57.126Z,102145.40
2019-03-27T06:30:28.680Z,102145.70
2019-03-27T06:33:00.176Z,102139.44
2019-03-27T06:35:31.765Z,102143.75
2019-03-27T06:38:03.358Z,102146.41
2019-03-27T06:40:35.016Z,102142.33
2019-03-27T06:43:06.602Z,102140.95
2019-03-27T06:45:38.294Z,102137.30
2019-03-27T06:48:09.891Z,102134.55
2019-03-27T06:50:41.439Z,102135.82
2019-03-27T06:53:12.979Z,102141.70
2019-03-27T06:55:44.633Z,102146.60
2019-03-27T06:58:16.204Z,102153.55
2019-03-27T07:00:47.818Z,102147.53
2019-03-27T07:03:19.398Z,102149.62
2019-03-27T07:05:51.338Z,102156.25
2019-03-27T07:08:22.851Z,102150.30
2019-03-27T07:10:54.332Z,102148.52
2019-03-27T07:13:25.979Z,102145.16
2019-03-27T07:15:57.506Z,102143.16
2019-03-27T07:18:39.570Z,102152.95
2019-03-27T07:21:02.261Z,102161.03
2019-03-27T07:23:33.812Z,102156.55
2019-03-27T07:26:06.540Z,102161.09
2019-03-27T07:28:39.194Z,102161.91
2019-03-27T07:31:10.715Z,102159.42
2019-03-27T07:33:42.217Z,102160.53
2019-03-27T07:36:13.792Z,102163.13
2019-03-27T07:38:45.301Z,102167.45
2019-03-27T07:41:16.859Z,102163.94
2019-03-27T07:43:48.372Z,102170.18
2019-03-27T07:46:19.884Z,102186.39
2019-03-27T07:48:54.083Z,102177.67
2019-03-27T07:51:24.600Z,102183.05
2019-03-27T07:53:56.147Z,102179.39
2019-03-27T07:56:27.647Z,102185.13
2019-03-27T07:58:59.922Z,102182.67
2019-03-27T08:01:31.531Z,102181.41
2019-03-27T08:04:03.108Z,102182.58
2019-03-27T08:06:34.593Z,102175.47
2019-03-27T08:09:08.263Z,102182.49
2019-03-27T08:11:39.914Z,102183.84
2019-03-27T08:14:11.554Z,102176.58
2019-03-27T08:16:44.225Z,102182.68
2019-03-27T08:19:15.769Z,102178.59
2019-03-27T08:21:47.255Z,102177.62
2019-03-27T08:24:18.795Z,102173.45
2019-03-27T08:26:50.377Z,102174.09
2019-03-27T08:29:21.955Z,102175.25
2019-03-27T08:31:53.499Z,102175.45
2019-03-27T08:34:24.993Z,102180.23
2019-03-27T08:36:56.524Z,102176.45
2019-03-27T08:39:28.046Z,102184.98
2019-03-27T08:41:59.534Z,102183.99
2019-03-27T08:44:31.052Z,102186.09
2019-03-27T08:47:02.704Z,102186.11
2019-03-27T08:49:34.208Z,102197.16
2019-03-27T08:52:06.797Z,102192.95
2019-03-27T08:54:38.323Z,102193.97
2019-03-27T08:57:09.819Z,102191.77
2019-03-27T08:59:42.400Z,102193.87
2019-03-27T09:02:14.048Z,102187.47
2019-03-27T09:04:45.569Z,102187.07
2019-03-27T09:07:17.162Z,102190.83
2019-03-27T09:09:48.675Z,102190.64
2019-03-27T09:12:20.205Z,102192.09
2019-03-27T09:14:51.765Z,102192.84
2019-03-27T09:17:23.277Z,102196.67
2019-03-27T09:19:54.809Z,102184.80
2019-03-27T09:22:26.305Z,102187.62
2019-03-27T09:24:57.885Z,102190.30
2019-03-27T09:27:29.425Z,102182.24
2019-03-27T09:30:00.990Z,102174.05
2019-03-27T09:32:32.498Z,102173.78
2019-03-27T09:35:04.153Z,102172.50
2019-03-27T09:37:35.676Z,102170.13
2019-03-27T09:40:07.190Z,102169.52
2019-03-27T09:42:38.788Z,102175.51
2019-03-27T09:45:10.273Z,102169.68
2019-03-27T09:47:41.793Z,102173.41
2019-03-27T09:50:14.944Z,102173.00
2019-03-27T09:52:46.477Z,102174.57
2019-03-27T09:55:18.002Z,102168.67
2019-03-27T09:57:49.655Z,102167.95
2019-03-27T10:00:40.812Z,102169.67
2019-03-27T10:03:12.382Z,102175.73
2019-03-27T10:05:43.879Z,102173.66
2019-03-27T10:08:15.464Z,102165.83
2019-03-27T10:10:47.028Z,102163.56
2019-03-27T10:13:19.410Z,102154.92
2019-03-27T10:15:50.904Z,102151.63
2019-03-27T10:18:23.481Z,102150.41
2019-03-27T10:20:55.146Z,102159.67
2019-03-27T10:23:26.635Z,102159.28
2019-03-27T10:25:58.144Z,102164.25
2019-03-27T10:28:29.662Z,102170.78
2019-03-27T10:31:01.177Z,102161.64
2019-03-27T10:33:32.690Z,102161.90
2019-03-27T10:36:04.181Z,102155.90
2019-03-27T10:38:35.693Z,102160.34
2019-03-27T10:41:07.198Z,102152.25
2019-03-27T10:43:38.695Z,102158.58
2019-03-27T10:46:10.299Z,102159.09
2019-03-27T10:48:51.989Z,102153.28
2019-03-27T10:51:15.055Z,102162.31
2019-03-27T10:53:46.633Z,102156.85
2019-03-27T10:56:18.217Z,102171.86
2019-03-27T10:58:49.822Z,102167.72
2019-03-27T11:01:21.301Z,102158.80
2019-03-27T11:03:52.821Z,102169.98
2019-03-27T11:06:24.388Z,102167.27
2019-03-27T11:08:55.957Z,102166.25
2019-03-27T11:11:27.486Z,102163.17
2019-03-27T11:13:58.990Z,102170.16
2019-03-27T11:16:31.466Z,102165.76
2019-03-27T11:19:02.965Z,102165.75
2019-03-27T11:21:34.482Z,102159.42
2019-03-27T11:24:05.983Z,102166.59
2019-03-27T11:26:37.540Z,102158.00
2019-03-27T11:29:09.058Z,102154.45
2019-03-27T11:31:40.650Z,102146.31
2019-03-27T11:34:12.181Z,102147.11
2019-03-27T11:36:43.679Z,102138.45
2019-03-27T11:39:15.337Z,102133.86
2019-03-27T11:41:47.002Z,102137.99
2019-03-27T11:44:19.465Z,102140.50
2019-03-27T11:46:51.049Z,102146.07
2019-03-27T11:49:22.562Z,102137.77
2019-03-27T11:51:54.064Z,102140.84
2019-03-27T11:54:25.573Z,102140.39
2019-03-27T11:56:57.092Z,102139.02
2019-03-27T11:59:28.621Z,102140.96
2019-03-27T12:02:00.162Z,102147.56
2019-03-27T12:04:31.742Z,102141.83
2019-03-27T12:07:03.245Z,102142.20
2019-03-27T12:09:34.834Z,102148.93
2019-03-27T12:12:06.360Z,102139.64
2019-03-27T12:14:37.921Z,102141.72
2019-03-27T12:17:09.541Z,102143.59
2019-03-27T12:19:41.060Z,102152.25
2019-03-27T12:22:12.618Z,102148.75
2019-03-27T12:24:44.129Z,102152.93
2019-03-27T12:27:15.659Z,102132.12
2019-03-27T12:29:47.170Z,102148.47
2019-03-27T12:32:18.657Z,102150.48
2019-03-27T12:34:50.169Z,102162.84
2019-03-27T12:37:21.660Z,102168.04
2019-03-27T12:39:53.175Z,102170.24
2019-03-27T12:42:24.701Z,102166.62
2019-03-27T12:44:56.285Z,102174.20
2019-03-27T12:47:27.872Z,102167.09
2019-03-27T12:49:59.388Z,102168.76
2019-03-27T12:52:31.026Z,102166.75
2019-03-27T12:55:02.544Z,102167.95
2019-03-27T12:57:34.131Z,102158.38
2019-03-27T13:00:08.437Z,102151.99
2019-03-27T13:02:40.991Z,102162.40
2019-03-27T13:05:12.569Z,102160.81
2019-03-27T13:07:50.045Z,102161.15
2019-03-27T13:10:17.285Z,102158.86
2019-03-27T13:12:48.808Z,102163.05
2019-03-27T13:15:20.335Z,102154.38
2019-03-27T13:17:51.866Z,102159.25
2019-03-27T13:20:23.378Z,102153.85
2019-03-27T13:22:54.901Z,102157.83
2019-03-27T13:25:26.418Z,102166.23
2019-03-27T13:27:58.022Z,102166.34
2019-03-27T13:30:29.557Z,102164.69
2019-03-27T13:33:01.148Z,102165.77
2019-03-27T13:35:33.815Z,102161.49
2019-03-27T13:38:05.330Z,102161.86
2019-03-27T13:40:36.822Z,102163.62
2019-03-27T13:43:08.339Z,102165.66
2019-03-27T13:45:39.980Z,102159.98
2019-03-27T13:48:11.486Z,102159.30
2019-03-27T13:50:42.973Z,102164.04
2019-03-27T13:53:14.562Z,102156.90
2019-03-27T13:55:46.150Z,102158.11
2019-03-27T13:58:17.645Z,102154.77
2019-03-27T14:00:49.165Z,102153.86
2019-03-27T14:03:20.679Z,102154.64
2019-03-27T14:05:52.193Z,102158.27
2019-03-27T14:08:23.775Z,102157.31
2019-03-27T14:10:55.287Z,102149.22
2019-03-27T14:13:26.816Z,102156.74
2019-03-27T14:15:58.333Z,102156.05
2019-03-27T14:18:29.846Z,102149.47
2019-03-27T14:21:01.344Z,102149.67
2019-03-27T14:23:33.037Z,102153.01
2019-03-27T14:26:04.559Z,102149.47
2019-03-27T14:28:36.147Z,102146.95
2019-03-27T14:31:09.302Z,102137.39
2019-03-27T14:33:40.840Z,102134.14
2019-03-27T14:36:12.427Z,102131.68
2019-03-27T14:38:44.011Z,102125.11
2019-03-27T14:41:15.593Z,102137.34
2019-03-27T14:43:47.261Z,102135.47
2019-03-27T14:46:18.779Z,102138.37
2019-03-27T14:48:50.292Z,102137.45
2019-03-27T14:51:21.908Z,102135.55
2019-03-27T14:53:53.426Z,102138.90
2019-03-27T14:56:24.925Z,102144.83
2019-03-27T14:58:56.536Z,102144.11
2019-03-27T15:01:28.077Z,102143.59
2019-03-27T15:03:59.765Z,102142.17
2019-03-27T15:06:31.286Z,102145.01
2019-03-27T15:09:03.981Z,102144.08
2019-03-27T15:11:35.693Z,102148.63
2019-03-27T15:14:07.200Z,102142.02
2019-03-27T15:16:38.772Z,102143.43
2019-03-27T15:19:10.305Z,102145.64
2019-03-27T15:21:41.808Z,102152.47
2019-03-27T15:24:13.310Z,102142.94
2019-03-27T15:26:44.898Z,102145.93
2019-03-27T15:29:16.417Z,102143.38
2019-03-27T15:31:48.017Z,102143.23
2019-03-27T15:34:22.611Z,102148.00
2019-03-27T15:36:54.192Z,102144.44
2019-03-27T15:39:25.706Z,102143.37
2019-03-27T15:41:57.198Z,102148.91
2019-03-27T15:44:28.761Z,102137.63
2019-03-27T15:47:00.270Z,102142.18
2019-03-27T15:49:31.850Z,102145.44
2019-03-27T15:52:03.350Z,102138.20
2019-03-27T15:54:34.859Z,102133.74
2019-03-27T15:57:06.517Z,102135.59
2019-03-27T15:59:38.033Z,102136.03
2019-03-27T16:02:09.917Z,102132.88
2019-03-27T16:04:41.502Z,102134.77
2019-03-27T16:07:13.219Z,102128.06
2019-03-27T16:09:44.849Z,102130.72
2019-03-27T16:12:16.317Z,102132.34
2019-03-27T16:14:47.906Z,102131.78
2019-03-27T16:17:19.411Z,102130.98
2019-03-27T16:19:50.920Z,102127.25
2019-03-27T16:22:22.532Z,102125.89
2019-03-27T16:24:55.744Z,102120.99
2019-03-27T16:27:28.951Z,102115.11
2019-03-27T16:30:00.627Z,102116.88
2019-03-27T16:32:32.261Z,102119.16
2019-03-27T16:35:08.988Z,102114.25
2019-03-27T16:37:41.558Z,102113.46
2019-03-27T16:40:20.273Z,102113.19
2019-03-27T16:43:01.209Z,102106.88
2019-03-27T16:45:37.214Z,102112.85
2019-03-27T16:48:08.862Z,102121.58
2019-03-27T16:50:40.444Z,102122.48
2019-03-27T16:53:28.892Z,102127.09
2019-03-27T16:56:00.612Z,102120.28
2019-03-27T16:58:32.144Z,102121.27
2019-03-27T17:01:03.714Z,102123.06
2019-03-27T17:03:35.260Z,102128.53
2019-03-27T17:06:06.782Z,102129.02
2019-03-27T17:08:38.369Z,102129.38
2019-03-27T17:11:10.082Z,102124.11
2019-03-27T17:13:43.215Z,102124.00
2019-03-27T17:16:14.794Z,102126.77
2019-03-27T17:18:49.164Z,102126.33
2019-03-27T17:21:22.546Z,102129.02
2019-03-27T17:23:54.098Z,102130.84
2019-03-27T17:26:25.657Z,102127.61
2019-03-27T17:28:57.212Z,102129.02
2019-03-27T17:31:28.760Z,102136.31
2019-03-27T17:34:00.304Z,102134.89
2019-03-27T17:36:31.881Z,102140.28
2019-03-27T17:39:08.416Z,102135.27
2019-03-27T17:41:40.387Z,102138.46
2019-03-27T17:44:12.013Z,102143.85
2019-03-27T17:46:43.680Z,102144.95
2019-03-27T17:49:16.651Z,102145.94
2019-03-27T17:51:49.798Z,102153.97
2019-03-27T17:54:22.150Z,102146.78
2019-03-27T17:56:53.726Z,102146.36
2019-03-27T17:59:25.281Z,102142.31
2019-03-27T18:01:59.839Z,102143.75
2019-03-27T18:04:31.362Z,102150.11
2019-03-27T18:07:02.885Z,102147.47
2019-03-27T18:09:34.502Z,102155.56
2019-03-27T18:12:06.026Z,102151.08
2019-03-27T18:14:37.648Z,102152.37
2019-03-27T18:17:09.174Z,102155.92
2019-03-27T18:19:40.686Z,102155.01
2019-03-27T18:22:12.214Z,102157.27
2019-03-27T18:24:43.713Z,102160.39
2019-03-27T18:27:15.293Z,102171.67
2019-03-27T18:29:46.931Z,102167.17
2019-03-27T18:32:18.451Z,102174.28
2019-03-27T18:34:49.973Z,102177.03
2019-03-27T18:37:22.617Z,102171.16
2019-03-27T18:39:54.200Z,102172.88
2019-03-27T18:42:25.723Z,102175.15
2019-03-27T18:44:58.317Z,102173.80
2019-03-27T18:47:29.898Z,102170.19
2019-03-27T18:50:02.964Z,102169.41
2019-03-27T18:52:34.554Z,102168.48
2019-03-27T18:55:07.138Z,102172.02
2019-03-27T18:57:38.835Z,102174.77
2019-03-27T19:00:10.396Z,102168.90
2019-03-27T19:02:41.990Z,102174.28
2019-03-27T19:05:13.589Z,102172.99
2019-03-27T19:07:45.110Z,102179.67
2019-03-27T19:10:16.634Z,102177.84
2019-03-27T19:12:48.247Z,102180.23
2019-03-27T19:15:20.901Z,102179.31
2019-03-27T19:17:52.440Z,102183.53
2019-03-27T19:20:23.949Z,102187.14
2019-03-27T19:22:55.478Z,102182.28
2019-03-27T19:25:27.129Z,102179.65
2019-03-27T19:27:59.720Z,102173.51
2019-03-27T19:30:31.238Z,102181.17
2019-03-27T19:33:02.965Z,102176.28
2019-03-27T19:35:34.546Z,102176.42
2019-03-27T19:38:06.135Z,102178.20
2019-03-27T19:40:38.922Z,102180.80
2019-03-27T19:43:10.579Z,102179.84
2019-03-27T19:45:42.298Z,102176.69
2019-03-27T19:48:14.057Z,102180.31
2019-03-27T19:50:51.247Z,102176.86
2019-03-27T19:53:22.944Z,102179.17
2019-03-27T19:55:54.628Z,102171.09
2019-03-27T19:58:26.843Z,102179.70
2019-03-27T20:01:03.902Z,102173.41
2019-03-27T20:03:40.340Z,102175.66
2019-03-27T20:06:15.212Z,102179.80
2019-03-27T20:08:48.433Z,102178.80
2019-03-27T20:11:20.065Z,102182.48
2019-03-27T20:13:51.629Z,102176.28
2019-03-27T20:16:24.242Z,102174.51
2019-03-27T20:18:55.911Z,102173.16
2019-03-27T20:24:19.611Z,102168.55
2019-03-27T20:26:52.999Z,102164.12
2019-03-27T20:29:35.818Z,102159.18
2019-03-27T20:32:09.183Z,102166.88
2019-03-27T20:34:45.925Z,102169.61
2019-03-27T20:40:51.772Z,102175.42
2019-03-27T20:49:51.619Z,102170.91
2019-03-27T20:52:29.415Z,102169.94
2019-03-27T20:55:01.140Z,102184.27
2019-03-27T20:57:34.117Z,102171.29
2019-03-27T21:00:07.349Z,102170.81
2019-03-27T21:02:39.224Z,102165.95
2019-03-27T21:05:10.821Z,102173.60
2019-03-27T21:07:46.558Z,102167.27
2019-03-27T21:10:19.081Z,102164.13
2019-03-27T21:12:50.662Z,102165.48
2019-03-27T21:15:22.231Z,102160.53
2019-03-27T21:17:53.771Z,102164.14
2019-03-27T21:20:25.303Z,102159.18
2019-03-27T21:22:56.934Z,102159.14
2019-03-27T21:25:30.276Z,102165.00
2019-03-27T21:28:01.928Z,102167.64
2019-03-27T21:30:38.539Z,102161.44
2019-03-27T21:33:11.652Z,102170.38
2019-03-27T21:35:43.265Z,102170.86
2019-03-27T21:38:14.941Z,102165.05
2019-03-27T21:40:46.521Z,102162.78
2019-03-27T21:43:18.198Z,102166.34
2019-03-27T21:45:49.867Z,102163.61
2019-03-27T21:48:21.494Z,102156.88
2019-03-27T21:50:55.438Z,102155.11
2019-03-27T21:53:27.181Z,102158.61
2019-03-27T21:55:58.733Z,102160.88
2019-03-27T21:58:30.316Z,102164.91
2019-03-27T22:01:02.921Z,102165.77
2019-03-27T22:03:34.577Z,102166.73
2019-03-27T22:06:06.085Z,102166.25
2019-03-27T22:08:39.231Z,102162.65
2019-03-27T22:11:10.685Z,102160.39
2019-03-27T22:13:42.186Z,102159.91
2019-03-27T22:16:13.723Z,102160.33
2019-03-27T22:18:45.236Z,102159.37
2019-03-27T22:21:18.185Z,102158.51
2019-03-27T22:23:49.779Z,102163.98
2019-03-27T22:26:21.302Z,102164.80
2019-03-27T22:28:52.808Z,102163.02
2019-03-27T22:31:24.323Z,102158.55
2019-03-27T22:33:55.959Z,102162.48
2019-03-27T22:36:27.528Z,102166.95
2019-03-27T22:38:59.027Z,102171.81
2019-03-27T22:41:32.225Z,102169.98
2019-03-27T22:44:04.212Z,102174.02
2019-03-27T22:46:35.726Z,102167.31
2019-03-27T22:49:07.239Z,102173.59
2019-03-27T22:51:38.744Z,102175.47
2019-03-27T22:54:10.240Z,102173.16
2019-03-27T22:56:41.767Z,102179.02
2019-03-27T22:59:13.275Z,102179.88
2019-03-27T23:01:46.186Z,102176.33
2019-03-27T23:04:17.736Z,102180.32
2019-03-27T23:06:49.244Z,102180.41
2019-03-27T23:09:20.829Z,102176.81
2019-03-27T23:11:52.420Z,102181.28
2019-03-27T23:14:24.010Z,102173.64
2019-03-27T23:16:55.599Z,102178.69
2019-03-27T23:19:27.161Z,102177.30
2019-03-27T23:21:58.650Z,102179.55
2019-03-27T23:24:30.241Z,102176.33
2019-03-27T23:27:01.829Z,102175.89
2019-03-27T23:29:33.409Z,102169.55
2019-03-27T23:32:04.998Z,102168.20
2019-03-27T23:34:36.512Z,102173.14
2019-03-27T23:37:08.099Z,102173.14
2019-03-27T23:39:39.743Z,102180.78
2019-03-27T23:42:11.240Z,102184.28
2019-03-27T23:44:42.850Z,102178.47
2019-03-27T23:47:14.363Z,102182.45
2019-03-27T23:49:45.898Z,102180.20
2019-03-27T23:52:17.469Z,102179.32
2019-03-27T23:54:49.305Z,102179.72
2019-03-27T23:57:20.828Z,102184.66
2019-03-27T23:59:52.412Z,102182.89
